Time;durP1;ratioP1;P1;durP2;ratioP2;P2;SDS_P1;SDS_P2;PMS_P1;PMS_P2;Temp;Humidity;BMP_temperature;BMP_pressure;BME280_temperature;BME280_humidity;BME280_pressure;Samples;Min_cycle;Max_cycle;Signal;HPM_P1;HPM_P2
2022/03/28 00:01:21;;;;;;;15.73;5.90;;;12.80;99.90;;;;;;5017060;28;20049;-73
2022/03/28 00:03:47;;;;;;;17.70;5.80;;;12.80;99.90;;;;;;5016892;28;20030;-74
2022/03/28 00:06:13;;;;;;;17.52;5.68;;;12.70;99.90;;;;;;5018152;28;20033;-72
2022/03/28 00:08:39;;;;;;;14.35;6.05;;;12.70;99.90;;;;;;5004040;28;20038;-73
2022/03/28 00:11:08;;;;;;;15.38;6.72;;;12.70;99.90;;;;;;5010617;28;20057;-73
2022/03/28 00:13:35;;;;;;;18.40;5.72;;;12.70;99.90;;;;;;5033273;28;20220;-72
2022/03/28 00:16:03;;;;;;;19.17;5.93;;;12.80;99.90;;;;;;5000691;28;20060;-72
2022/03/28 00:18:29;;;;;;;18.30;6.03;;;12.70;99.90;;;;;;5032948;28;20052;-73
2022/03/28 00:20:55;;;;;;;18.55;7.03;;;12.70;99.90;;;;;;5030997;28;20038;-73
2022/03/28 00:23:22;;;;;;;13.68;6.43;;;12.80;99.90;;;;;;5019252;28;20038;-73
2022/03/28 00:25:49;;;;;;;12.15;5.55;;;12.80;99.90;;;;;;5017061;28;20030;-72
2022/03/28 00:28:15;;;;;;;11.13;5.70;;;12.80;99.90;;;;;;5015649;28;20438;-73
2022/03/28 00:30:41;;;;;;;17.27;6.32;;;12.90;99.90;;;;;;5018415;28;20068;-73
2022/03/28 00:33:08;;;;;;;16.98;6.25;;;12.80;99.90;;;;;;5017424;28;20044;-72
2022/03/28 00:35:35;;;;;;;15.43;5.80;;;12.70;99.90;;;;;;5031944;28;20113;-73
2022/03/28 00:38:03;;;;;;;15.15;6.35;;;12.70;99.90;;;;;;5031377;28;20045;-72
2022/03/28 00:40:31;;;;;;;14.25;6.00;;;12.70;99.90;;;;;;5016693;28;20843;-73
2022/03/28 00:43:03;;;;;;;18.40;5.93;;;12.60;99.90;;;;;;5002013;28;20045;-73
2022/03/28 00:45:31;;;;;;;13.25;6.07;;;12.50;99.90;;;;;;5030396;28;20033;-72
2022/03/28 00:47:57;;;;;;;20.95;5.60;;;12.50;99.90;;;;;;5022020;28;20021;-73
2022/03/28 00:50:24;;;;;;;15.02;6.00;;;12.60;99.90;;;;;;5000833;28;20053;-72
2022/03/28 00:52:50;;;;;;;14.98;6.40;;;12.60;99.90;;;;;;5021772;28;20469;-73
2022/03/28 00:55:16;;;;;;;17.35;6.65;;;12.70;99.90;;;;;;5015386;28;20121;-72
2022/03/28 00:57:42;;;;;;;17.25;6.13;;;12.70;99.90;;;;;;5016330;28;20662;-72
2022/03/28 01:00:10;;;;;;;17.42;6.32;;;12.70;99.90;;;;;;5014754;28;20033;-73
2022/03/28 01:02:38;;;;;;;14.38;5.70;;;12.60;99.90;;;;;;5028689;28;20042;-72
2022/03/28 01:05:04;;;;;;;14.63;6.82;;;12.70;99.90;;;;;;5023301;28;20049;-73
2022/03/28 01:07:30;;;;;;;15.27;6.00;;;12.60;99.90;;;;;;5002167;28;20428;-72
2022/03/28 01:09:58;;;;;;;12.70;6.07;;;12.60;99.90;;;;;;5011571;28;20076;-73
2022/03/28 01:12:26;;;;;;;14.05;6.32;;;12.60;99.90;;;;;;5001277;28;20078;-73
2022/03/28 01:14:53;;;;;;;14.43;6.50;;;12.60;99.90;;;;;;5035355;28;20477;-72
2022/03/28 01:20:04;;;;;;;15.65;6.25;;;12.50;99.90;;;;;;5017718;28;20045;-73
2022/03/28 01:22:29;;;;;;;16.17;6.50;;;12.40;99.90;;;;;;5022283;28;20037;-73
2022/03/28 01:25:02;;;;;;;13.15;6.13;;;12.50;99.90;;;;;;5035475;28;20111;-73
2022/03/28 01:27:28;;;;;;;14.13;6.18;;;12.50;99.90;;;;;;5020296;28;20033;-74
2022/03/28 01:29:54;;;;;;;18.35;6.00;;;12.50;99.90;;;;;;5036488;28;20073;-73
2022/03/28 01:32:20;;;;;;;13.20;5.35;;;12.50;99.90;;;;;;5020852;28;20069;-72
2022/03/28 01:34:46;;;;;;;14.32;6.20;;;12.40;99.90;;;;;;5022638;28;20042;-72
2022/03/28 01:37:12;;;;;;;16.85;6.85;;;12.40;99.90;;;;;;5021098;28;20034;-72
2022/03/28 01:39:38;;;;;;;19.98;6.65;;;12.50;99.90;;;;;;5037499;28;20072;-73
2022/03/28 01:42:04;;;;;;;13.23;5.90;;;12.60;99.90;;;;;;5017284;28;20073;-72
2022/03/28 01:44:30;;;;;;;12.75;6.13;;;12.50;99.90;;;;;;5035137;28;20128;-73
2022/03/28 01:46:56;;;;;;;15.32;5.40;;;12.50;99.90;;;;;;5000641;28;20117;-73
2022/03/28 01:49:22;;;;;;;14.75;6.32;;;12.60;99.90;;;;;;5037594;28;20110;-72
2022/03/28 01:51:49;;;;;;;13.27;5.68;;;12.60;99.90;;;;;;5004059;28;20503;-73
2022/03/28 01:54:16;;;;;;;16.20;5.57;;;12.60;99.90;;;;;;5023457;28;20128;-72
2022/03/28 01:56:42;;;;;;;13.25;5.35;;;12.50;99.90;;;;;;5020641;28;20444;-72
2022/03/28 01:59:10;;;;;;;14.23;5.20;;;12.50;99.90;;;;;;5034444;28;20620;-72
2022/03/28 02:01:37;;;;;;;16.27;5.85;;;12.50;99.90;;;;;;5032162;28;20524;-73
2022/03/28 02:04:04;;;;;;;15.20;5.85;;;12.50;99.90;;;;;;5017467;28;20037;-72
2022/03/28 02:06:32;;;;;;;12.93;5.30;;;12.50;99.90;;;;;;5022708;28;20037;-72
2022/03/28 02:08:58;;;;;;;16.95;5.90;;;12.50;99.90;;;;;;5018878;28;20053;-72
2022/03/28 02:11:24;;;;;;;13.88;6.18;;;12.50;99.90;;;;;;5020124;28;20052;-72
2022/03/28 02:13:50;;;;;;;13.15;5.63;;;12.50;99.90;;;;;;5019696;28;20132;-73
2022/03/28 02:16:16;;;;;;;12.38;6.13;;;12.60;99.90;;;;;;5019957;28;20156;-73
2022/03/28 02:18:42;;;;;;;14.00;6.20;;;12.70;99.90;;;;;;5038774;28;20042;-73
2022/03/28 02:21:08;;;;;;;16.55;6.20;;;12.70;99.90;;;;;;5021287;28;20034;-72
2022/03/28 02:23:34;;;;;;;16.95;6.07;;;12.60;99.90;;;;;;5021146;28;20038;-73
2022/03/28 02:26:02;;;;;;;13.30;6.10;;;12.70;99.90;;;;;;4999928;28;20076;-73
2022/03/28 02:28:29;;;;;;;15.52;6.40;;;12.60;99.90;;;;;;5009465;28;20037;-74
2022/03/28 02:30:55;;;;;;;13.30;5.68;;;12.60;99.90;;;;;;5014541;28;20457;-72
2022/03/28 02:33:21;;;;;;;11.50;5.18;;;12.60;99.90;;;;;;5018611;28;20121;-73
2022/03/28 02:35:48;;;;;;;13.02;6.20;;;12.60;99.90;;;;;;5034601;28;20068;-73
2022/03/28 02:38:14;;;;;;;12.20;5.88;;;12.50;99.90;;;;;;5015397;28;20044;-73
2022/03/28 02:40:40;;;;;;;13.45;5.60;;;12.50;99.90;;;;;;5037649;28;20049;-73
2022/03/28 02:43:06;;;;;;;10.57;5.30;;;12.40;99.90;;;;;;5034472;28;20033;-73
2022/03/28 02:45:34;;;;;;;13.45;5.90;;;12.30;99.90;;;;;;5032066;28;20072;-73
2022/03/28 02:48:01;;;;;;;15.38;6.05;;;12.30;99.90;;;;;;5001879;28;20034;-73
2022/03/28 02:50:30;;;;;;;14.48;6.30;;;12.20;99.90;;;;;;4998340;28;20460;-74
2022/03/28 02:52:56;;;;;;;12.85;5.97;;;12.20;99.90;;;;;;5034913;28;20707;-73
2022/03/28 02:55:23;;;;;;;14.45;6.07;;;12.20;99.90;;;;;;5018715;28;20977;-73
2022/03/28 02:57:48;;;;;;;12.13;5.85;;;12.20;99.90;;;;;;5031371;28;20050;-73
2022/03/28 03:00:14;;;;;;;15.07;6.38;;;12.20;99.90;;;;;;5020877;28;20040;-72
2022/03/28 03:02:44;;;;;;;17.10;6.00;;;12.20;99.90;;;;;;5003332;28;20041;-73
2022/03/28 03:05:11;;;;;;;12.98;6.13;;;12.20;99.90;;;;;;5018724;28;20435;-72
2022/03/28 03:07:38;;;;;;;10.45;5.60;;;12.10;99.90;;;;;;5032086;28;20041;-72
2022/03/28 03:10:05;;;;;;;11.40;5.88;;;12.10;99.90;;;;;;5032825;28;20070;-73
2022/03/28 03:12:31;;;;;;;12.48;6.32;;;12.10;99.90;;;;;;5017761;28;20033;-73
2022/03/28 03:14:57;;;;;;;14.90;6.68;;;12.10;99.90;;;;;;5032335;28;20114;-72
2022/03/28 03:17:23;;;;;;;14.60;6.03;;;12.00;99.90;;;;;;5033195;28;20065;-72
2022/03/28 03:19:49;;;;;;;15.90;6.43;;;12.00;99.90;;;;;;5017928;28;20440;-73
2022/03/28 03:22:15;;;;;;;11.88;6.55;;;12.00;99.90;;;;;;5018035;28;20543;-72
2022/03/28 03:24:42;;;;;;;13.85;5.70;;;12.00;99.90;;;;;;5017987;28;20431;-73
2022/03/28 03:27:08;;;;;;;16.40;6.10;;;11.90;99.90;;;;;;5014692;28;20135;-73
2022/03/28 03:29:34;;;;;;;13.15;6.18;;;12.00;99.90;;;;;;5005235;28;20124;-72
2022/03/28 03:32:01;;;;;;;17.77;6.68;;;12.00;99.90;;;;;;5019622;28;20034;-72
2022/03/28 03:34:27;;;;;;;14.07;6.30;;;12.00;99.90;;;;;;5018103;28;20034;-72
2022/03/28 03:36:53;;;;;;;12.40;5.88;;;12.00;99.90;;;;;;5036524;28;20045;-72
2022/03/28 03:39:22;;;;;;;11.25;6.20;;;12.10;99.90;;;;;;5017763;28;20041;-72
2022/03/28 03:41:48;;;;;;;13.57;5.80;;;12.10;99.90;;;;;;5017276;28;20044;-72
2022/03/28 03:44:14;;;;;;;10.00;5.78;;;12.10;99.90;;;;;;5033673;28;20484;-72
2022/03/28 03:46:40;;;;;;;14.30;6.18;;;12.10;99.90;;;;;;5016814;28;20041;-73
2022/03/28 03:49:06;;;;;;;15.57;6.18;;;12.00;99.90;;;;;;5032094;28;20125;-73
2022/03/28 03:51:32;;;;;;;15.93;5.85;;;12.00;99.90;;;;;;5021177;28;20042;-72
2022/03/28 03:53:58;;;;;;;12.32;5.60;;;11.90;99.90;;;;;;5018178;28;20092;-72
2022/03/28 03:56:25;;;;;;;16.00;5.90;;;12.00;99.90;;;;;;4996313;28;20064;-72
2022/03/28 03:58:51;;;;;;;15.27;5.68;;;12.00;99.90;;;;;;5002322;28;20059;-71
2022/03/28 04:01:17;;;;;;;11.70;5.80;;;12.00;99.70;;;;;;4998339;28;20041;-72
2022/03/28 04:03:43;;;;;;;12.43;5.68;;;12.00;99.60;;;;;;5032673;28;20074;-72
2022/03/28 04:06:10;;;;;;;10.40;5.57;;;12.10;99.60;;;;;;5017798;28;20540;-73
2022/03/28 04:08:37;;;;;;;12.10;5.45;;;12.00;99.50;;;;;;5015400;28;20572;-73
2022/03/28 04:11:03;;;;;;;11.32;5.45;;;12.10;99.40;;;;;;4999825;28;20041;-73
2022/03/28 04:13:29;;;;;;;12.75;5.55;;;12.10;99.30;;;;;;5032632;28;20103;-73
2022/03/28 04:15:55;;;;;;;13.48;5.20;;;12.00;99.40;;;;;;5019742;28;20034;-72
2022/03/28 04:18:21;;;;;;;15.68;5.97;;;12.10;99.40;;;;;;5030537;28;20098;-73
2022/03/28 04:20:48;;;;;;;13.77;5.30;;;12.00;99.30;;;;;;5032020;28;20045;-72
2022/03/28 04:23:15;;;;;;;12.68;5.85;;;12.00;99.30;;;;;;5017383;28;20357;-72
2022/03/28 04:25:41;;;;;;;14.13;5.28;;;12.00;99.10;;;;;;5019546;28;20041;-72
2022/03/28 04:28:07;;;;;;;11.55;5.10;;;12.00;99.10;;;;;;5019791;28;20095;-72
2022/03/28 04:30:33;;;;;;;12.77;5.85;;;12.00;99.10;;;;;;5030956;28;20511;-73
2022/03/28 04:33:00;;;;;;;17.13;5.50;;;12.00;99.10;;;;;;5018979;28;20030;-73
2022/03/28 04:35:26;;;;;;;14.52;5.43;;;12.00;99.00;;;;;;5033003;28;20088;-72
2022/03/28 04:37:52;;;;;;;14.93;5.65;;;11.90;99.00;;;;;;4998387;28;20038;-72
2022/03/28 04:40:18;;;;;;;14.10;5.57;;;12.00;98.90;;;;;;5014154;28;20051;-72
2022/03/28 04:42:48;;;;;;;12.15;5.40;;;12.00;98.80;;;;;;5000380;28;20480;-73
2022/03/28 04:45:14;;;;;;;13.43;5.05;;;12.00;98.80;;;;;;5015234;28;20041;-73
2022/03/28 04:47:40;;;;;;;10.93;5.07;;;12.00;98.70;;;;;;5019209;28;20044;-72
2022/03/28 04:50:07;;;;;;;20.58;5.95;;;12.00;98.80;;;;;;5013513;28;20033;-73
2022/03/28 04:52:34;;;;;;;13.13;6.00;;;11.90;98.90;;;;;;4999605;28;20119;-73
2022/03/28 04:55:00;;;;;;;11.23;5.60;;;11.90;98.80;;;;;;5000341;28;20128;-73
2022/03/28 04:57:26;;;;;;;16.70;5.85;;;11.90;98.90;;;;;;4998910;28;20030;-72
2022/03/28 04:59:52;;;;;;;16.25;5.22;;;11.90;98.90;;;;;;5018597;28;20108;-72
2022/03/28 05:02:18;;;;;;;22.05;6.03;;;11.90;98.90;;;;;;4996695;28;20476;-72
2022/03/28 05:04:43;;;;;;;12.55;5.57;;;11.90;98.80;;;;;;5017809;28;20113;-71
2022/03/28 05:07:09;;;;;;;15.90;6.80;;;11.90;98.80;;;;;;5018091;28;20432;-72
2022/03/28 05:09:35;;;;;;;18.05;6.13;;;11.80;98.90;;;;;;5015808;28;20037;-73
2022/03/28 05:12:01;;;;;;;12.95;5.72;;;11.80;98.90;;;;;;5019459;28;20037;-72
2022/03/28 05:14:27;;;;;;;17.27;5.60;;;11.80;98.90;;;;;;5027669;28;20048;-72
2022/03/28 05:16:53;;;;;;;13.07;5.28;;;11.80;98.80;;;;;;5015368;28;20052;-73
2022/03/28 05:19:19;;;;;;;15.70;6.47;;;11.90;98.60;;;;;;5016146;28;20038;-73
2022/03/28 05:21:44;;;;;;;12.60;6.22;;;11.80;98.60;;;;;;5033041;28;20042;-72
2022/03/28 05:24:10;;;;;;;13.75;5.97;;;11.80;98.60;;;;;;5012907;28;20052;-73
2022/03/28 05:26:36;;;;;;;10.90;5.30;;;11.80;98.60;;;;;;5025093;28;20080;-71
2022/03/28 05:29:02;;;;;;;13.30;5.93;;;11.90;98.50;;;;;;4995631;28;20030;-73
2022/03/28 05:31:28;;;;;;;13.00;5.88;;;12.00;98.40;;;;;;5034318;28;20042;-72
2022/03/28 05:33:54;;;;;;;15.68;5.90;;;12.00;98.30;;;;;;5006893;28;20037;-72
2022/03/28 05:36:20;;;;;;;16.45;6.30;;;12.00;98.30;;;;;;5016559;28;20050;-72
2022/03/28 05:38:46;;;;;;;18.25;6.13;;;12.00;98.20;;;;;;5002101;28;20120;-72
2022/03/28 05:41:12;;;;;;;14.23;5.68;;;12.00;98.20;;;;;;5018105;28;20041;-73
2022/03/28 05:43:38;;;;;;;13.50;6.25;;;12.00;98.30;;;;;;4997011;28;20440;-74
2022/03/28 05:46:05;;;;;;;14.35;6.28;;;12.00;98.40;;;;;;5016458;28;20026;-74
2022/03/28 05:48:31;;;;;;;15.18;6.55;;;12.00;98.20;;;;;;5036049;28;20037;-73
2022/03/28 05:50:57;;;;;;;12.23;6.70;;;12.00;98.10;;;;;;5017854;28;20385;-73
2022/03/28 05:53:23;;;;;;;16.30;6.32;;;12.00;98.20;;;;;;4998453;28;20099;-73
2022/03/28 05:55:49;;;;;;;16.10;6.35;;;12.10;97.90;;;;;;5018212;28;20621;-73
2022/03/28 05:58:16;;;;;;;10.57;5.90;;;12.10;98.00;;;;;;5024635;28;20140;-74
2022/03/28 06:00:42;;;;;;;11.48;5.93;;;12.10;98.00;;;;;;5032402;28;20072;-73
2022/03/28 06:03:08;;;;;;;17.38;5.78;;;12.10;98.10;;;;;;5000173;28;20442;-72
2022/03/28 06:05:38;;;;;;;15.52;6.20;;;12.00;98.00;;;;;;5018763;28;20037;-72
2022/03/28 06:08:05;;;;;;;16.63;7.40;;;12.10;97.80;;;;;;5004043;28;20140;-73
2022/03/28 06:10:31;;;;;;;16.08;6.38;;;12.30;97.50;;;;;;5004794;28;20053;-75
2022/03/28 06:12:57;;;;;;;18.13;6.40;;;12.30;97.60;;;;;;5003668;28;20366;-74
2022/03/28 06:15:24;;;;;;;15.95;6.53;;;12.40;97.40;;;;;;5002866;28;20033;-73
2022/03/28 06:17:50;;;;;;;16.70;6.80;;;12.30;97.50;;;;;;5025125;28;20479;-72
2022/03/28 06:20:17;;;;;;;16.33;5.85;;;12.40;97.30;;;;;;5026077;28;20790;-75
2022/03/28 06:22:43;;;;;;;14.52;6.15;;;12.50;97.20;;;;;;5017033;28;20045;-72
2022/03/28 06:25:10;;;;;;;16.67;7.00;;;12.60;97.00;;;;;;5016641;28;20057;-73
2022/03/28 06:27:42;;;;;;;12.80;6.55;;;12.60;96.90;;;;;;5023391;28;20404;-74
2022/03/28 06:30:11;;;;;;;15.07;6.20;;;12.70;96.80;;;;;;5036113;28;20488;-73
2022/03/28 06:32:39;;;;;;;16.10;6.70;;;12.80;96.90;;;;;;5019320;28;20132;-73
2022/03/28 06:35:06;;;;;;;14.13;6.40;;;12.90;96.60;;;;;;5018713;28;20045;-74
2022/03/28 06:37:33;;;;;;;13.82;6.53;;;12.90;96.50;;;;;;5010120;28;20030;-72
2022/03/28 06:39:59;;;;;;;11.93;6.50;;;13.00;96.40;;;;;;5021651;28;20030;-72
2022/03/28 06:42:26;;;;;;;16.85;6.65;;;13.10;96.60;;;;;;5021184;28;20041;-75
2022/03/28 06:44:52;;;;;;;20.88;6.57;;;13.10;96.60;;;;;;5009807;28;20045;-73
2022/03/28 06:47:18;;;;;;;17.92;6.78;;;13.20;96.60;;;;;;5034651;28;20037;-72
2022/03/28 06:49:43;;;;;;;12.45;6.78;;;13.20;96.50;;;;;;5037432;28;20103;-72
2022/03/28 06:52:10;;;;;;;15.60;7.13;;;13.30;96.30;;;;;;5016232;28;20053;-74
2022/03/28 06:54:36;;;;;;;14.55;6.63;;;13.40;96.40;;;;;;5020680;28;20073;-73
2022/03/28 06:57:03;;;;;;;17.48;6.05;;;13.50;96.10;;;;;;5022871;28;20069;-74
2022/03/28 06:59:29;;;;;;;11.50;6.28;;;13.60;95.90;;;;;;5036351;28;20528;-72
2022/03/28 07:01:57;;;;;;;21.13;6.65;;;13.70;95.80;;;;;;4996599;28;20125;-73
2022/03/28 07:04:23;;;;;;;17.77;5.80;;;13.80;95.20;;;;;;5033523;28;20218;-73
2022/03/28 07:06:49;;;;;;;15.45;6.10;;;13.90;95.20;;;;;;4998381;28;20061;-73
2022/03/28 07:09:16;;;;;;;16.58;7.28;;;14.00;95.20;;;;;;5017027;28;20092;-74
2022/03/28 07:11:41;;;;;;;16.48;6.25;;;14.00;95.10;;;;;;5033869;28;20121;-75
2022/03/28 07:14:07;;;;;;;16.90;6.35;;;14.10;95.20;;;;;;4997950;28;20113;-73
2022/03/28 07:16:34;;;;;;;17.13;6.30;;;14.20;95.10;;;;;;5018532;28;20225;-74
2022/03/28 07:19:00;;;;;;;19.58;6.88;;;14.30;94.90;;;;;;5035531;28;20041;-73
2022/03/28 07:21:27;;;;;;;18.35;6.90;;;14.40;95.10;;;;;;5037473;28;20632;-74
2022/03/28 07:23:53;;;;;;;15.10;7.20;;;14.60;95.10;;;;;;5020417;28;20080;-74
2022/03/28 07:26:20;;;;;;;17.38;7.18;;;14.60;94.70;;;;;;5018575;28;20038;-74
2022/03/28 07:28:46;;;;;;;17.15;7.03;;;14.70;94.80;;;;;;5021041;28;20045;-73
2022/03/28 07:31:12;;;;;;;17.10;6.78;;;14.80;94.90;;;;;;4990596;28;20039;-72
2022/03/28 07:33:38;;;;;;;14.77;6.47;;;14.90;94.90;;;;;;5008231;28;20045;-73
2022/03/28 07:36:05;;;;;;;22.83;7.05;;;14.90;94.70;;;;;;4989987;28;20033;-73
2022/03/28 07:38:31;;;;;;;16.23;6.90;;;15.10;94.40;;;;;;5004984;28;20065;-74
2022/03/28 07:40:57;;;;;;;13.60;6.70;;;15.20;94.50;;;;;;5006841;28;20766;-74
2022/03/28 07:43:25;;;;;;;19.35;7.78;;;15.30;94.20;;;;;;5028074;28;20046;-74
2022/03/28 07:45:53;;;;;;;18.10;7.07;;;15.50;94.30;;;;;;5019484;28;20033;-74
2022/03/28 07:48:21;;;;;;;15.32;6.43;;;15.60;94.00;;;;;;5030709;28;20034;-74
2022/03/28 07:50:48;;;;;;;13.73;6.88;;;15.80;93.80;;;;;;4990044;28;20041;-74
2022/03/28 07:53:14;;;;;;;13.05;6.38;;;15.90;93.60;;;;;;5027005;28;20515;-73
2022/03/28 07:55:41;;;;;;;19.75;6.60;;;16.00;93.10;;;;;;5008579;28;20042;-74
2022/03/28 07:58:08;;;;;;;12.25;6.45;;;16.10;93.20;;;;;;5002172;28;20133;-74
2022/03/28 08:00:34;;;;;;;18.05;6.85;;;16.20;92.60;;;;;;5011658;28;20111;-74
2022/03/28 08:03:01;;;;;;;15.73;7.10;;;16.40;92.60;;;;;;4995723;28;20041;-74
2022/03/28 08:05:27;;;;;;;14.18;6.97;;;16.50;92.60;;;;;;4997804;28;20551;-73
2022/03/28 08:07:55;;;;;;;13.43;7.38;;;16.70;92.10;;;;;;5026720;28;20408;-73
2022/03/28 08:10:22;;;;;;;12.00;7.38;;;16.70;91.90;;;;;;5032034;28;20045;-74
2022/03/28 08:12:49;;;;;;;18.42;7.07;;;16.70;91.80;;;;;;5025787;28;21021;-74
2022/03/28 08:15:16;;;;;;;18.98;7.43;;;16.80;91.70;;;;;;5008974;28;20499;-72
2022/03/28 08:17:43;;;;;;;15.85;7.60;;;16.70;91.40;;;;;;5006388;28;20041;-74
2022/03/28 08:20:11;;;;;;;15.95;7.68;;;16.70;91.70;;;;;;5008404;28;20049;-73
2022/03/28 08:22:44;;;;;;;19.05;7.55;;;16.80;91.70;;;;;;5012763;28;20128;-73
2022/03/28 08:25:10;;;;;;;16.83;8.18;;;16.70;92.20;;;;;;5005794;28;20045;-74
2022/03/28 08:27:36;;;;;;;19.92;9.98;;;16.70;92.40;;;;;;4997333;28;20042;-74
2022/03/28 08:30:02;;;;;;;20.25;8.32;;;16.80;92.60;;;;;;4993079;28;20045;-75
2022/03/28 08:32:28;;;;;;;22.27;8.75;;;17.00;92.50;;;;;;5006670;28;20071;-74
2022/03/28 08:34:54;;;;;;;17.58;8.90;;;17.30;92.40;;;;;;5010874;28;20480;-76
2022/03/28 08:37:21;;;;;;;18.35;7.78;;;18.10;91.70;;;;;;5023459;28;20451;-74
2022/03/28 08:39:54;;;;;;;16.60;7.13;;;18.70;90.80;;;;;;5002952;28;20086;-74
2022/03/28 08:42:24;;;;;;;22.75;7.43;;;19.00;90.30;;;;;;5003560;28;20104;-74
2022/03/28 08:44:50;;;;;;;18.98;7.40;;;19.60;89.70;;;;;;5009503;28;20049;-75
2022/03/28 08:47:22;;;;;;;24.75;9.05;;;19.70;88.30;;;;;;5028723;28;20037;-74
2022/03/28 08:49:50;;;;;;;15.07;8.13;;;20.00;88.00;;;;;;5005073;28;20045;-74
2022/03/28 08:52:16;;;;;;;18.15;7.85;;;20.60;87.60;;;;;;5004229;28;20072;-74
2022/03/28 08:54:43;;;;;;;18.17;8.48;;;21.00;86.10;;;;;;5010824;28;20144;-74
2022/03/28 08:57:12;;;;;;;23.48;9.23;;;21.40;86.30;;;;;;5005026;28;20512;-73
2022/03/28 08:59:38;;;;;;;18.95;8.23;;;22.00;85.40;;;;;;5019658;28;20046;-73
2022/03/28 09:02:04;;;;;;;18.25;9.07;;;22.30;84.60;;;;;;5000332;28;20065;-74
2022/03/28 09:04:30;;;;;;;18.40;9.95;;;22.10;84.30;;;;;;5021126;28;20100;-75
2022/03/28 09:06:57;;;;;;;17.80;9.55;;;22.40;84.60;;;;;;5021718;28;28449;-74
2022/03/28 09:09:29;;;;;;;18.58;10.20;;;22.80;84.30;;;;;;5022867;28;20080;-74
2022/03/28 09:11:58;;;;;;;23.20;9.90;;;23.00;83.60;;;;;;5022636;28;20046;-74
2022/03/28 09:14:36;;;;;;;24.77;10.80;;;23.30;82.60;;;;;;5026187;28;20037;-74
2022/03/28 09:17:10;;;;;;;23.05;10.00;;;23.60;82.40;;;;;;4993716;28;20034;-74
2022/03/28 09:19:59;;;;;;;22.92;10.23;;;24.00;82.00;;;;;;5005730;28;20095;-75
2022/03/28 09:22:30;;;;;;;22.60;9.32;;;24.30;80.40;;;;;;4999117;28;20460;-74
2022/03/28 09:24:58;;;;;;;19.23;9.25;;;24.10;80.20;;;;;;5021506;28;20496;-75
2022/03/28 09:27:30;;;;;;;19.98;10.02;;;23.90;80.10;;;;;;5018641;28;24821;-74
2022/03/28 09:30:00;;;;;;;19.90;8.53;;;23.70;80.70;;;;;;5022341;28;20053;-74
2022/03/28 09:32:32;;;;;;;12.23;6.97;;;23.60;79.40;;;;;;5022763;28;20042;-74
2022/03/28 09:35:21;;;;;;;11.90;6.78;;;24.00;77.80;;;;;;4996058;28;20056;-74
2022/03/28 09:37:47;;;;;;;15.45;6.18;;;24.00;75.40;;;;;;5003756;28;20045;-73
2022/03/28 09:40:37;;;;;;;11.65;6.25;;;24.20;75.40;;;;;;5009479;28;21267;-74
2022/03/28 09:43:06;;;;;;;12.50;6.28;;;24.60;74.20;;;;;;4988427;28;20057;-73
2022/03/28 09:45:37;;;;;;;13.68;6.18;;;24.40;74.20;;;;;;5011437;28;20037;-74
2022/03/28 09:48:14;;;;;;;10.52;6.70;;;24.80;73.20;;;;;;5006234;28;26095;-74
2022/03/28 09:51:01;;;;;;;11.20;6.38;;;24.70;72.70;;;;;;5024769;28;20456;-74
2022/03/28 09:53:32;;;;;;;13.43;6.30;;;24.40;72.90;;;;;;5005445;28;20034;-75
2022/03/28 09:56:09;;;;;;;14.77;6.97;;;24.00;72.40;;;;;;5010949;28;20041;-77
2022/03/28 09:59:04;;;;;;;14.02;7.00;;;23.50;72.60;;;;;;4994452;28;20148;-74
2022/03/28 10:01:35;;;;;;;14.18;7.32;;;23.30;72.40;;;;;;5015551;28;20095;-74
2022/03/28 10:04:05;;;;;;;14.32;7.05;;;23.20;72.60;;;;;;5009869;28;20087;-74
2022/03/28 10:06:32;;;;;;;12.27;6.88;;;22.80;73.10;;;;;;4989000;28;20049;-74
2022/03/28 10:08:59;;;;;;;11.68;7.00;;;22.50;72.70;;;;;;5010056;28;20140;-73
2022/03/28 10:11:26;;;;;;;17.52;6.88;;;22.20;73.20;;;;;;5006985;28;20046;-74
2022/03/28 10:13:53;;;;;;;14.57;7.20;;;22.20;72.70;;;;;;5005551;28;20034;-74
2022/03/28 10:16:19;;;;;;;12.10;7.63;;;21.90;72.90;;;;;;5001769;28;20133;-73
2022/03/28 10:18:49;;;;;;;12.65;7.13;;;21.90;72.80;;;;;;5007027;28;20053;-72
2022/03/28 10:21:36;;;;;;;10.50;6.80;;;21.80;72.90;;;;;;5021227;28;20067;-73
2022/03/28 10:24:07;;;;;;;12.98;8.00;;;21.80;72.60;;;;;;5022094;28;20033;-72
2022/03/28 10:26:38;;;;;;;16.27;7.18;;;22.00;73.10;;;;;;5004934;28;20042;-73
2022/03/28 10:29:07;;;;;;;14.80;7.03;;;21.90;72.60;;;;;;5016236;28;20531;-72
2022/03/28 10:31:34;;;;;;;12.07;7.22;;;21.80;72.70;;;;;;4994259;28;20544;-72
2022/03/28 10:34:02;;;;;;;20.58;7.88;;;21.80;72.00;;;;;;5008709;28;20045;-73
2022/03/28 10:36:34;;;;;;;19.23;8.60;;;21.70;72.30;;;;;;5032463;28;20519;-72
2022/03/28 10:39:35;;;;;;;14.45;7.75;;;21.90;72.90;;;;;;5033331;28;20168;-72
2022/03/28 10:42:24;;;;;;;14.57;8.35;;;22.40;73.10;;;;;;5016781;28;20046;-73
2022/03/28 10:45:02;;;;;;;15.65;8.73;;;22.60;73.70;;;;;;5012274;28;20064;-73
2022/03/28 10:47:55;;;;;;;14.40;7.80;;;23.10;72.40;;;;;;5024963;28;20041;-72
2022/03/28 10:50:41;;;;;;;15.13;8.15;;;22.90;71.70;;;;;;5019233;28;20041;-73
2022/03/28 10:53:10;;;;;;;16.05;8.20;;;22.60;72.30;;;;;;4999324;28;20385;-73
2022/03/28 10:55:47;;;;;;;12.30;7.75;;;22.30;72.40;;;;;;5009197;28;20037;-73
2022/03/28 10:58:14;;;;;;;15.10;8.50;;;22.00;73.30;;;;;;4997520;28;20533;-73
2022/03/28 11:01:34;;;;;;;21.70;8.05;;;22.20;73.90;;;;;;4991144;28;20038;-72
2022/03/28 11:04:16;;;;;;;14.68;7.03;;;22.20;73.60;;;;;;4948673;28;20431;-72
2022/03/28 11:07:02;;;;;;;15.68;6.80;;;22.20;73.50;;;;;;4981707;28;20387;-73
2022/03/28 11:09:34;;;;;;;13.63;6.82;;;22.40;73.80;;;;;;4994940;28;20042;-72
2022/03/28 11:12:04;;;;;;;13.05;7.40;;;22.70;73.30;;;;;;4997470;28;20029;-71
2022/03/28 11:14:42;;;;;;;14.57;7.15;;;23.10;72.40;;;;;;4990577;28;20143;-73
2022/03/28 11:17:37;;;;;;;16.33;7.63;;;22.60;72.70;;;;;;5001864;28;20142;-72
2022/03/28 11:20:22;;;;;;;14.70;7.10;;;22.30;73.00;;;;;;4997346;28;20030;-72
2022/03/28 11:23:09;;;;;;;10.40;7.10;;;22.40;73.40;;;;;;4991537;28;20236;-72
2022/03/28 11:25:44;;;;;;;15.77;7.30;;;22.40;73.70;;;;;;4975085;28;20093;-73
2022/03/28 11:28:23;;;;;;;13.15;6.82;;;22.50;74.30;;;;;;5003160;28;20140;-73
2022/03/28 11:31:01;;;;;;;12.25;6.85;;;21.90;74.80;;;;;;5003342;28;20041;-72
2022/03/28 11:33:29;;;;;;;15.82;7.07;;;22.70;74.50;;;;;;4983773;28;20053;-72
2022/03/28 11:36:02;;;;;;;13.57;6.93;;;22.70;73.70;;;;;;5010181;28;20057;-72
2022/03/28 11:38:32;;;;;;;12.45;6.60;;;22.90;73.80;;;;;;5010021;28;20041;-72
2022/03/28 11:41:00;;;;;;;17.02;7.00;;;23.20;73.50;;;;;;5003442;28;20048;-72
2022/03/28 11:43:28;;;;;;;15.32;7.00;;;23.00;73.30;;;;;;5004666;28;20053;-72
2022/03/28 11:45:54;;;;;;;12.80;7.00;;;22.00;73.90;;;;;;5004146;28;20030;-72
2022/03/28 11:48:21;;;;;;;15.43;7.57;;;22.30;74.30;;;;;;5003765;28;20042;-73
2022/03/28 11:50:47;;;;;;;15.82;6.95;;;22.60;74.70;;;;;;5002280;28;20111;-73
2022/03/28 11:53:15;;;;;;;14.02;6.93;;;23.00;74.00;;;;;;5004585;28;20484;-74
2022/03/28 11:55:54;;;;;;;12.30;6.82;;;23.40;73.80;;;;;;5008946;28;20045;-73
2022/03/28 11:58:30;;;;;;;13.60;6.88;;;23.50;73.50;;;;;;5008414;28;20037;-75
2022/03/28 12:01:11;;;;;;;13.80;7.15;;;24.00;73.10;;;;;;5005017;28;20484;-72
2022/03/28 12:03:48;;;;;;;14.68;7.47;;;24.20;71.90;;;;;;5007839;28;20044;-73
2022/03/28 12:06:26;;;;;;;16.60;7.00;;;24.40;71.20;;;;;;5022751;28;20148;-72
2022/03/28 12:08:53;;;;;;;11.73;6.50;;;24.40;70.30;;;;;;5004858;28;20041;-74
2022/03/28 12:11:19;;;;;;;16.13;7.47;;;23.50;70.70;;;;;;5005090;28;20069;-72
2022/03/28 12:13:46;;;;;;;15.40;7.25;;;23.50;71.20;;;;;;5007431;28;20042;-73
2022/03/28 12:16:11;;;;;;;15.55;7.38;;;23.50;71.50;;;;;;4992320;28;20048;-73
2022/03/28 12:18:37;;;;;;;19.05;7.40;;;23.30;71.60;;;;;;5012790;28;20488;-73
2022/03/28 12:21:06;;;;;;;12.77;7.40;;;22.90;72.30;;;;;;5006980;28;20056;-74
2022/03/28 12:23:32;;;;;;;14.63;6.90;;;22.70;72.00;;;;;;4988317;28;20034;-73
2022/03/28 12:26:04;;;;;;;16.42;6.93;;;22.50;72.70;;;;;;5005341;28;20120;-72
2022/03/28 12:28:35;;;;;;;12.30;6.95;;;22.80;73.00;;;;;;4985503;28;20464;-73
2022/03/28 12:31:03;;;;;;;14.80;7.13;;;23.20;71.40;;;;;;5007079;28;20046;-72
2022/03/28 12:33:38;;;;;;;12.27;6.50;;;23.50;71.00;;;;;;5008049;28;20071;-73
2022/03/28 12:36:10;;;;;;;14.95;7.43;;;23.50;70.70;;;;;;4993744;28;20035;-72
2022/03/28 12:38:44;;;;;;;27.08;8.40;;;23.40;70.40;;;;;;5011473;28;20042;-73
2022/03/28 12:41:15;;;;;;;12.13;7.65;;;23.20;70.80;;;;;;5023289;28;20057;-76
2022/03/28 12:43:50;;;;;;;15.85;6.97;;;23.60;70.40;;;;;;5017427;28;20033;-72
2022/03/28 12:46:16;;;;;;;11.45;6.78;;;23.80;70.10;;;;;;5003386;28;20497;-73